createdAt,value
2023-04-01T00:02:16.297Z,94838.13
2023-04-01T00:05:13.140Z,94835.63
2023-04-01T00:08:09.993Z,94842.84
2023-04-01T00:11:08.589Z,94834.06
2023-04-01T00:14:05.653Z,94838.94
2023-04-01T00:17:02.801Z,94828.63
2023-04-01T00:19:59.913Z,94822.84
2023-04-01T00:22:57.141Z,94817.66
2023-04-01T00:25:53.972Z,94819.88
2023-04-01T00:28:51.153Z,94826.09
2023-04-01T00:31:49.180Z,94827.06
2023-04-01T00:34:46.447Z,94823.81
2023-04-01T00:37:43.269Z,94832.13
2023-04-01T00:40:46.898Z,94823.81
2023-04-01T00:43:46.406Z,94830.75
2023-04-01T00:46:43.279Z,94825.88
2023-04-01T00:49:44.876Z,94826.84
2023-04-01T00:52:41.865Z,94826.81
2023-04-01T00:55:46.626Z,94828.53
2023-04-01T00:58:50.346Z,94831.53
2023-04-01T01:01:47.805Z,94818.72
2023-04-01T01:04:44.906Z,94827.63
2023-04-01T01:08:10.895Z,94826.72
2023-04-01T01:11:12.662Z,94823.00
2023-04-01T01:14:28.535Z,94824.53
2023-04-01T01:18:11.485Z,94824.66
2023-04-01T01:21:29.792Z,94816.22
2023-04-01T01:25:00.886Z,94821.38
2023-04-01T01:28:29.551Z,94826.31
2023-04-01T01:31:37.856Z,94821.31
2023-04-01T01:35:31.356Z,94814.09
2023-04-01T01:38:33.861Z,94810.88
2023-04-01T01:41:32.746Z,94816.19
2023-04-01T01:44:31.590Z,94807.44
2023-04-01T01:47:30.394Z,94806.44
2023-04-01T01:50:28.321Z,94815.72
2023-04-01T01:53:25.253Z,94812.38
2023-04-01T01:56:28.137Z,94803.78
2023-04-01T01:59:28.212Z,94800.94
2023-04-01T02:02:28.195Z,94807.47
2023-04-01T02:05:27.999Z,94806.94
2023-04-01T02:08:58.584Z,94805.72
2023-04-01T02:12:09.280Z,94801.66
2023-04-01T02:15:10.980Z,94815.25
2023-04-01T02:18:08.509Z,94813.69
2023-04-01T02:21:07.661Z,94806.03
2023-04-01T02:24:12.908Z,94799.00
2023-04-01T02:27:11.351Z,94801.81
2023-04-01T02:30:09.223Z,94804.28
2023-04-01T02:33:07.459Z,94805.59
2023-04-01T02:36:04.841Z,94804.94
2023-04-01T02:39:03.842Z,94807.44
2023-04-01T02:42:01.285Z,94799.75
2023-04-01T02:44:58.103Z,94801.38
2023-04-01T02:47:54.967Z,94804.50
2023-04-01T02:50:51.834Z,94811.31
2023-04-01T02:53:48.650Z,94801.03
2023-04-01T02:56:46.595Z,94797.41
2023-04-01T02:59:43.449Z,94803.28
2023-04-01T03:02:40.774Z,94795.53
2023-04-01T03:05:37.709Z,94804.28
2023-04-01T03:08:34.573Z,94800.47
2023-04-01T03:11:31.390Z,94808.44
2023-04-01T03:14:28.243Z,94808.31
2023-04-01T03:17:25.323Z,94818.47
2023-04-01T03:20:22.121Z,94814.47
2023-04-01T03:23:20.566Z,94811.03
2023-04-01T03:26:17.686Z,94813.53
2023-04-01T03:29:16.695Z,94812.53
2023-04-01T03:32:13.540Z,94806.78
2023-04-01T03:35:11.254Z,94811.50
2023-04-01T03:38:08.096Z,94811.16
2023-04-01T03:41:05.345Z,94818.38
2023-04-01T03:44:02.200Z,94813.38
2023-04-01T03:46:59.196Z,94820.00
2023-04-01T03:49:56.003Z,94814.03
2023-04-01T03:52:52.811Z,94813.41
2023-04-01T03:55:49.673Z,94821.22
2023-04-01T03:58:46.529Z,94815.59
2023-04-01T04:01:43.345Z,94809.69
2023-04-01T04:04:40.838Z,94822.00
2023-04-01T04:07:38.998Z,94808.75
2023-04-01T04:10:36.516Z,94821.41
2023-04-01T04:13:33.379Z,94831.41
2023-04-01T04:16:30.292Z,94812.19
2023-04-01T04:19:27.310Z,94826.91
2023-04-01T04:22:24.230Z,94820.81
2023-04-01T04:25:21.026Z,94817.84
2023-04-01T04:28:17.835Z,94815.16
2023-04-01T04:31:21.690Z,94818.28
2023-04-01T04:34:19.462Z,94823.94
2023-04-01T04:37:16.269Z,94819.38
2023-04-01T04:40:13.264Z,94823.31
2023-04-01T04:43:16.640Z,94828.97
2023-04-01T04:46:13.551Z,94833.50
2023-04-01T04:49:10.553Z,94830.72
2023-04-01T04:52:07.591Z,94827.84
2023-04-01T04:55:04.958Z,94826.16
2023-04-01T04:58:02.262Z,94832.84
2023-04-01T05:00:59.108Z,94830.06
2023-04-01T05:03:56.322Z,94832.28
2023-04-01T05:06:53.126Z,94839.28
2023-04-01T05:09:50.041Z,94841.59
2023-04-01T05:12:46.878Z,94837.91
2023-04-01T05:15:43.693Z,94840.78
2023-04-01T05:18:40.550Z,94838.94
2023-04-01T05:21:37.365Z,94841.81
2023-04-01T05:24:34.556Z,94846.00
2023-04-01T05:27:31.518Z,94844.31
2023-04-01T05:30:28.368Z,94836.50
2023-04-01T05:33:25.237Z,94836.94
2023-04-01T05:36:22.376Z,94833.03
2023-04-01T05:39:19.210Z,94841.94
2023-04-01T05:42:16.756Z,94840.84
2023-04-01T05:45:16.376Z,94829.91
2023-04-01T05:48:13.230Z,94833.13
2023-04-01T05:51:17.318Z,94835.50
2023-04-01T05:54:14.156Z,94836.78
2023-04-01T05:57:11.005Z,94842.22
2023-04-01T06:00:08.615Z,94837.03
2023-04-01T06:03:05.729Z,94841.41
2023-04-01T06:06:03.298Z,94845.78
2023-04-01T06:09:19.052Z,94843.75
2023-04-01T06:13:07.879Z,94849.19
2023-04-01T06:16:59.232Z,94860.72
2023-04-01T06:20:21.513Z,94843.75
2023-04-01T06:23:39.156Z,94853.16
2023-04-01T06:26:58.977Z,94856.41
2023-04-01T06:30:33.828Z,94855.91
2023-04-01T06:34:06.056Z,94862.38
2023-04-01T06:37:27.565Z,94862.38
2023-04-01T06:40:42.811Z,94867.97
2023-04-01T06:43:59.716Z,94871.28
2023-04-01T06:47:20.447Z,94873.47
2023-04-01T06:50:38.429Z,94871.91
2023-04-01T06:53:52.121Z,94868.13
2023-04-01T06:56:59.184Z,94867.81
2023-04-01T06:59:59.491Z,94866.09
2023-04-01T07:03:35.785Z,94869.41
2023-04-01T07:06:37.746Z,94872.47
2023-04-01T07:09:41.164Z,94861.06
2023-04-01T07:12:58.417Z,94866.88
2023-04-01T07:16:06.284Z,94869.53
2023-04-01T07:19:43.330Z,94871.53
2023-04-01T07:22:53.513Z,94863.44
2023-04-01T07:25:59.383Z,94860.69
2023-04-01T07:28:57.751Z,94864.78
2023-04-01T07:32:24.772Z,94867.94
2023-04-01T07:35:54.465Z,94867.56
2023-04-01T07:39:19.612Z,94867.44
2023-04-01T07:43:03.046Z,94870.41
2023-04-01T07:46:07.523Z,94877.75
2023-04-01T07:49:31.583Z,94870.72
2023-04-01T07:53:18.253Z,94871.59
2023-04-01T07:57:00.898Z,94873.91
2023-04-01T08:00:34.369Z,94879.84
2023-04-01T08:04:18.574Z,94873.16
2023-04-01T08:07:51.029Z,94888.66
2023-04-01T08:11:13.318Z,94886.72
2023-04-01T08:14:27.753Z,94878.28
2023-04-01T08:17:35.750Z,94879.34
2023-04-01T08:20:45.579Z,94887.97
2023-04-01T08:23:46.980Z,94892.31
2023-04-01T08:26:50.697Z,94896.88
2023-04-01T08:30:29.025Z,94893.31
2023-04-01T08:33:31.963Z,94891.47
2023-04-01T08:36:42.067Z,94894.09
2023-04-01T08:39:55.816Z,94892.38
2023-04-01T08:43:48.480Z,94907.41
2023-04-01T08:47:30.266Z,94902.81
2023-04-01T08:51:27.401Z,94896.50
2023-04-01T08:54:45.422Z,94899.88
2023-04-01T08:57:56.791Z,94901.56
2023-04-01T09:01:07.646Z,94890.91
2023-04-01T09:04:26.003Z,94889.00
2023-04-01T09:07:58.463Z,94894.38
2023-04-01T09:11:58.879Z,94898.72
2023-04-01T09:15:31.447Z,94897.50
2023-04-01T09:18:40.258Z,94896.53
2023-04-01T09:22:10.988Z,94902.34
2023-04-01T09:25:30.843Z,94892.66
2023-04-01T09:28:55.539Z,94897.28
2023-04-01T09:32:27.265Z,94897.75
2023-04-01T09:36:19.140Z,94896.50
2023-04-01T09:39:44.892Z,94899.44
2023-04-01T09:43:02.126Z,94902.88
2023-04-01T09:46:41.828Z,94903.88
2023-04-01T09:50:07.935Z,94903.53
2023-04-01T09:53:18.092Z,94902.59
2023-04-01T09:56:53.303Z,94895.59
2023-04-01T10:00:29.426Z,94899.72
2023-04-01T10:04:20.228Z,94907.03
2023-04-01T10:07:40.156Z,94904.19
2023-04-01T10:11:23.773Z,94910.16
2023-04-01T10:14:35.842Z,94905.94
2023-04-01T10:18:13.563Z,94907.88
2023-04-01T10:21:53.497Z,94907.81
2023-04-01T10:25:48.266Z,94911.00
2023-04-01T10:29:03.919Z,94909.19
2023-04-01T10:32:19.367Z,94913.16
2023-04-01T10:35:58.306Z,94912.19
2023-04-01T10:39:28.498Z,94905.25
2023-04-01T10:43:15.416Z,94904.38
2023-04-01T10:46:54.767Z,94909.84
2023-04-01T10:50:31.112Z,94906.97
2023-04-01T10:54:04.886Z,94892.56
2023-04-01T10:57:38.965Z,94891.47
2023-04-01T11:01:14.606Z,94900.22
2023-04-01T11:05:04.717Z,94906.69
2023-04-01T11:08:29.381Z,94906.69
2023-04-01T11:12:07.676Z,94903.53
2023-04-01T11:15:24.503Z,94908.31
2023-04-01T11:18:51.672Z,94910.94
2023-04-01T11:22:22.418Z,94910.28
2023-04-01T11:25:37.674Z,94910.41
2023-04-01T11:29:10.632Z,94916.06
2023-04-01T11:32:38.699Z,94918.19
2023-04-01T11:36:20.938Z,94915.50
2023-04-01T11:39:39.657Z,94914.72
2023-04-01T11:42:55.888Z,94918.41
2023-04-01T11:46:16.232Z,94912.75
2023-04-01T11:49:52.095Z,94913.94
2023-04-01T11:53:02.548Z,94914.97
2023-04-01T11:56:38.250Z,94924.88
2023-04-01T11:59:55.546Z,94916.72
2023-04-01T12:03:46.193Z,94920.34
2023-04-01T12:06:45.527Z,94917.38
2023-04-01T12:10:11.880Z,94930.44
2023-04-01T12:13:40.395Z,94925.28
2023-04-01T12:16:55.365Z,94929.97
2023-04-01T12:20:42.931Z,94928.38
2023-04-01T12:24:23.808Z,94938.50
2023-04-01T12:27:49.269Z,94934.38
2023-04-01T12:31:29.323Z,94937.31
2023-04-01T12:34:59.158Z,94936.91
2023-04-01T12:38:26.880Z,94942.56
2023-04-01T12:42:03.163Z,94936.72
2023-04-01T12:45:33.705Z,94942.75
2023-04-01T12:49:05.819Z,94937.09
2023-04-01T12:52:21.296Z,94936.97
2023-04-01T12:55:50.287Z,94929.78
2023-04-01T12:59:03.400Z,94936.81
2023-04-01T13:02:56.478Z,94931.94
2023-04-01T13:06:21.421Z,94936.38
2023-04-01T13:09:52.482Z,94935.38
2023-04-01T13:13:06.644Z,94939.50
2023-04-01T13:16:17.360Z,94937.72
2023-04-01T13:19:29.781Z,94940.50
2023-04-01T13:22:54.476Z,94937.25
2023-04-01T13:26:19.649Z,94941.44
2023-04-01T13:29:27.064Z,94953.03
2023-04-01T13:35:54.819Z,94963.41
2023-04-01T13:39:16.147Z,94953.97
2023-04-01T13:42:38.752Z,94958.72
2023-04-01T13:46:12.825Z,94954.50
2023-04-01T13:49:42.878Z,94951.19
2023-04-01T13:53:12.811Z,94954.84
2023-04-01T13:56:48.340Z,94954.28
2023-04-01T14:00:25.895Z,94956.16
2023-04-01T14:03:57.374Z,94966.63
2023-04-01T14:07:33.878Z,94966.88
2023-04-01T14:10:44.073Z,94968.28
2023-04-01T14:14:10.581Z,94969.16
2023-04-01T14:17:49.067Z,94977.19
2023-04-01T14:21:32.637Z,94977.06
2023-04-01T14:24:59.269Z,94981.63
2023-04-01T14:28:36.375Z,94969.75
2023-04-01T14:32:05.293Z,94980.84
2023-04-01T14:35:34.930Z,94985.56
2023-04-01T14:38:52.801Z,94986.00
2023-04-01T14:42:01.897Z,94993.66
2023-04-01T14:45:39.154Z,94996.25
2023-04-01T14:49:00.575Z,94988.31
2023-04-01T14:52:05.181Z,94993.66
2023-04-01T14:55:12.069Z,94996.84
2023-04-01T14:58:14.517Z,94995.22
2023-04-01T15:01:51.389Z,94992.06
2023-04-01T15:05:24.589Z,95003.75
2023-04-01T15:08:56.924Z,95002.81
2023-04-01T15:12:02.845Z,95013.34
2023-04-01T15:15:15.310Z,95006.34
2023-04-01T15:18:51.955Z,95013.31
2023-04-01T15:22:24.997Z,95017.00
2023-04-01T15:25:52.256Z,95013.69
2023-04-01T15:29:07.507Z,95017.16
2023-04-01T15:32:25.469Z,95022.81
2023-04-01T15:35:42.337Z,95021.59
2023-04-01T15:39:37.105Z,95026.59
2023-04-01T15:43:27.583Z,95027.06
2023-04-01T15:46:45.519Z,95028.63
2023-04-01T15:49:57.022Z,95032.81
2023-04-01T15:53:36.289Z,95041.53
2023-04-01T15:57:13.404Z,95041.25
2023-04-01T16:00:29.606Z,95043.88
2023-04-01T16:03:53.508Z,95041.19
2023-04-01T16:07:00.947Z,95051.66
2023-04-01T16:10:45.407Z,95055.16
2023-04-01T16:14:14.848Z,95058.88
2023-04-01T16:17:34.286Z,95050.09
2023-04-01T16:21:13.054Z,95055.72
2023-04-01T16:24:17.220Z,95054.22
2023-04-01T16:27:41.456Z,95059.00
2023-04-01T16:30:58.641Z,95062.72
2023-04-01T16:34:18.633Z,95066.72
2023-04-01T16:37:22.954Z,95066.94
2023-04-01T16:41:11.544Z,95074.06
2023-04-01T16:44:19.772Z,95068.00
2023-04-01T16:47:22.978Z,95084.13
2023-04-01T16:50:25.039Z,95083.34
2023-04-01T16:54:07.627Z,95086.28
2023-04-01T16:57:34.099Z,95092.72
2023-04-01T17:00:50.872Z,95094.03
2023-04-01T17:03:58.363Z,95096.22
2023-04-01T17:07:00.341Z,95099.38
2023-04-01T17:10:23.728Z,95102.03
2023-04-01T17:14:00.697Z,95110.03
2023-04-01T17:17:26.227Z,95114.28
2023-04-01T17:21:00.876Z,95117.84
2023-04-01T17:24:31.554Z,95119.16
2023-04-01T17:28:27.034Z,95121.16
2023-04-01T17:31:26.929Z,95116.72
2023-04-01T17:34:56.169Z,95117.84
2023-04-01T17:38:08.300Z,95127.47
2023-04-01T17:41:20.832Z,95133.22
2023-04-01T17:44:47.705Z,95132.94
2023-04-01T17:48:04.636Z,95144.25
2023-04-01T17:51:49.933Z,95148.84
2023-04-01T17:55:06.826Z,95157.75
2023-04-01T17:58:21.813Z,95154.38
2023-04-01T18:01:37.381Z,95159.03
2023-04-01T18:05:11.773Z,95162.94
2023-04-01T18:08:37.190Z,95166.72
2023-04-01T18:12:11.402Z,95171.72
2023-04-01T18:15:37.316Z,95182.97
2023-04-01T18:19:24.280Z,95175.47
2023-04-01T18:22:34.895Z,95185.97
2023-04-01T18:25:49.105Z,95189.06
2023-04-01T18:28:57.456Z,95182.66
2023-04-01T18:32:12.391Z,95188.75
2023-04-01T18:35:51.422Z,95198.94
2023-04-01T18:39:03.119Z,95195.50
2023-04-01T18:42:43.613Z,95207.63
2023-04-01T18:46:07.996Z,95217.66
2023-04-01T18:49:31.342Z,95213.44
2023-04-01T18:52:42.293Z,95222.19
2023-04-01T18:55:48.730Z,95221.28
2023-04-01T18:59:10.646Z,95228.50
2023-04-01T19:02:33.630Z,95231.19
2023-04-01T19:05:43.305Z,95239.16
2023-04-01T19:08:42.229Z,95241.50
2023-04-01T19:12:19.964Z,95248.56
2023-04-01T19:15:43.654Z,95248.25
2023-04-01T19:19:18.808Z,95250.28
2023-04-01T19:22:53.839Z,95257.97
2023-04-01T19:25:58.328Z,95252.19
2023-04-01T19:29:32.347Z,95255.16
2023-04-01T19:32:54.365Z,95274.16
2023-04-01T19:36:03.343Z,95269.56
2023-04-01T19:39:49.070Z,95273.38
2023-04-01T19:43:12.248Z,95279.63
2023-04-01T19:46:22.554Z,95277.91
2023-04-01T19:49:44.052Z,95286.03
2023-04-01T19:52:44.401Z,95285.13
2023-04-01T19:55:51.363Z,95280.06
2023-04-01T19:59:17.527Z,95291.22
2023-04-01T20:02:44.846Z,95292.16
2023-04-01T20:06:01.679Z,95299.06
2023-04-01T20:09:36.105Z,95307.22
2023-04-01T20:13:22.338Z,95311.13
2023-04-01T20:16:22.839Z,95315.53
2023-04-01T20:19:59.027Z,95323.06
2023-04-01T20:23:23.543Z,95324.16
2023-04-01T20:26:26.862Z,95324.63
2023-04-01T20:29:44.205Z,95330.72
2023-04-01T20:33:19.299Z,95334.34
2023-04-01T20:36:35.916Z,95341.56
2023-04-01T20:40:06.171Z,95343.13
2023-04-01T20:43:30.163Z,95342.50
2023-04-01T20:47:11.224Z,95347.53
2023-04-01T20:50:33.691Z,95350.81
2023-04-01T20:54:21.955Z,95353.94
2023-04-01T20:58:06.674Z,95351.91
2023-04-01T21:01:25.789Z,95358.97
2023-04-01T21:04:42.513Z,95360.69
2023-04-01T21:07:47.323Z,95367.75
2023-04-01T21:11:01.315Z,95375.09
2023-04-01T21:14:47.325Z,95385.13
2023-04-01T21:17:59.561Z,95387.31
2023-04-01T21:21:16.252Z,95380.75
2023-04-01T21:24:55.062Z,95390.16
2023-04-01T21:28:29.014Z,95391.53
2023-04-01T21:31:48.547Z,95382.00
2023-04-01T21:34:59.667Z,95397.66
2023-04-01T21:38:22.934Z,95402.38
2023-04-01T21:41:41.138Z,95402.50
2023-04-01T21:45:09.805Z,95413.03
2023-04-01T21:48:54.563Z,95417.38
2023-04-01T21:52:31.082Z,95432.56
2023-04-01T21:56:21.094Z,95421.63
2023-04-01T22:00:15.501Z,95434.50
2023-04-01T22:03:41.932Z,95436.00
2023-04-01T22:06:56.924Z,95436.50
2023-04-01T22:10:21.941Z,95441.34
2023-04-01T22:13:40.633Z,95449.19
2023-04-01T22:17:04.275Z,95441.84
2023-04-01T22:20:21.190Z,95449.50
2023-04-01T22:24:09.284Z,95456.38
2023-04-01T22:27:15.614Z,95455.63
2023-04-01T22:30:48.826Z,95463.75
2023-04-01T22:34:05.798Z,95460.94
2023-04-01T22:37:16.316Z,95462.97
2023-04-01T22:40:44.716Z,95477.25
2023-04-01T22:43:44.679Z,95471.59
2023-04-01T22:47:18.717Z,95479.56
2023-04-01T22:50:41.012Z,95478.78
2023-04-01T22:54:13.494Z,95483.97
2023-04-01T22:57:47.546Z,95477.84
2023-04-01T23:00:54.095Z,95487.91
2023-04-01T23:03:52.932Z,95485.06
2023-04-01T23:06:59.511Z,95484.91
2023-04-01T23:09:59.578Z,95491.00
2023-04-01T23:13:02.094Z,95493.22
2023-04-01T23:15:59.459Z,95494.94
2023-04-01T23:19:22.838Z,95501.22
2023-04-01T23:22:34.415Z,95500.72
2023-04-01T23:26:06.118Z,95510.31
2023-04-01T23:29:04.291Z,95520.00
2023-04-01T23:32:03.568Z,95519.22
2023-04-01T23:35:01.336Z,95526.56
2023-04-01T23:38:00.190Z,95527.53
2023-04-01T23:40:57.243Z,95529.84
2023-04-01T23:44:04.936Z,95536.44
2023-04-01T23:47:03.201Z,95527.97
2023-04-01T23:50:14.401Z,95531.75
2023-04-01T23:53:21.443Z,95552.09
2023-04-01T23:56:19.134Z,95540.03
2023-04-01T23:59:33.846Z,95541.59
